sensor_id;sensor_type;location;lat;lon;timestamp;P1;durP1;ratioP1;P2;durP2;ratioP2
3911;SDS011;1971;51.778;10.330;2023-02-27T00:00:59;0.90;;;0.80;;
3911;SDS011;1971;51.778;10.330;2023-02-27T00:03:29;0.60;;;0.60;;
3911;SDS011;1971;51.778;10.330;2023-02-27T00:05:59;1.03;;;0.93;;
3911;SDS011;1971;51.778;10.330;2023-02-27T00:08:32;1.33;;;0.77;;
3911;SDS011;1971;51.778;10.330;2023-02-27T00:11:02;1.10;;;1.10;;
3911;SDS011;1971;51.778;10.330;2023-02-27T00:13:32;1.00;;;0.90;;
3911;SDS011;1971;51.778;10.330;2023-02-27T00:16:03;2.20;;;1.07;;
3911;SDS011;1971;51.778;10.330;2023-02-27T00:18:36;0.83;;;0.83;;
3911;SDS011;1971;51.778;10.330;2023-02-27T00:21:06;1.03;;;0.97;;
3911;SDS011;1971;51.778;10.330;2023-02-27T00:23:39;1.00;;;1.00;;
3911;SDS011;1971;51.778;10.330;2023-02-27T00:26:09;0.97;;;0.80;;
3911;SDS011;1971;51.778;10.330;2023-02-27T00:28:39;1.10;;;1.00;;
3911;SDS011;1971;51.778;10.330;2023-02-27T00:31:09;3.03;;;1.03;;
3911;SDS011;1971;51.778;10.330;2023-02-27T00:33:39;0.87;;;0.80;;
3911;SDS011;1971;51.778;10.330;2023-02-27T00:36:09;1.90;;;0.90;;
3911;SDS011;1971;51.778;10.330;2023-02-27T00:38:42;1.30;;;0.80;;
3911;SDS011;1971;51.778;10.330;2023-02-27T00:41:12;1.83;;;0.93;;
3911;SDS011;1971;51.778;10.330;2023-02-27T00:43:42;1.43;;;0.90;;
3911;SDS011;1971;51.778;10.330;2023-02-27T00:46:12;1.70;;;1.60;;
3911;SDS011;1971;51.778;10.330;2023-02-27T00:48:43;0.90;;;0.70;;
3911;SDS011;1971;51.778;10.330;2023-02-27T00:51:13;0.90;;;0.90;;
3911;SDS011;1971;51.778;10.330;2023-02-27T00:53:48;0.93;;;0.70;;
3911;SDS011;1971;51.778;10.330;2023-02-27T00:56:18;1.40;;;0.73;;
3911;SDS011;1971;51.778;10.330;2023-02-27T00:58:49;0.90;;;0.90;;
3911;SDS011;1971;51.778;10.330;2023-02-27T01:01:20;1.17;;;1.00;;
3911;SDS011;1971;51.778;10.330;2023-02-27T01:03:51;1.30;;;1.20;;
3911;SDS011;1971;51.778;10.330;2023-02-27T01:06:21;1.90;;;0.80;;
3911;SDS011;1971;51.778;10.330;2023-02-27T01:08:55;1.47;;;0.93;;
3911;SDS011;1971;51.778;10.330;2023-02-27T01:11:25;0.70;;;0.70;;
3911;SDS011;1971;51.778;10.330;2023-02-27T01:13:58;1.10;;;1.00;;
3911;SDS011;1971;51.778;10.330;2023-02-27T01:16:28;1.27;;;1.27;;
3911;SDS011;1971;51.778;10.330;2023-02-27T01:18:59;1.30;;;0.77;;
3911;SDS011;1971;51.778;10.330;2023-02-27T01:21:29;1.23;;;1.13;;
3911;SDS011;1971;51.778;10.330;2023-02-27T01:24:01;0.88;;;0.88;;
3911;SDS011;1971;51.778;10.330;2023-02-27T01:29:02;1.35;;;0.93;;
3911;SDS011;1971;51.778;10.330;2023-02-27T01:31:32;1.10;;;1.02;;
3911;SDS011;1971;51.778;10.330;2023-02-27T01:34:03;1.08;;;0.98;;
3911;SDS011;1971;51.778;10.330;2023-02-27T01:36:33;1.23;;;1.13;;
3911;SDS011;1971;51.778;10.330;2023-02-27T01:39:05;0.85;;;0.85;;
3911;SDS011;1971;51.778;10.330;2023-02-27T01:41:35;1.87;;;1.20;;
3911;SDS011;1971;51.778;10.330;2023-02-27T01:44:06;0.83;;;0.83;;
3911;SDS011;1971;51.778;10.330;2023-02-27T01:46:37;1.10;;;0.70;;
3911;SDS011;1971;51.778;10.330;2023-02-27T01:49:09;0.65;;;0.60;;
3911;SDS011;1971;51.778;10.330;2023-02-27T01:51:46;0.70;;;0.70;;
3911;SDS011;1971;51.778;10.330;2023-02-27T01:54:23;0.70;;;0.70;;
3911;SDS011;1971;51.778;10.330;2023-02-27T01:56:54;0.70;;;0.70;;
3911;SDS011;1971;51.778;10.330;2023-02-27T01:59:28;0.70;;;0.70;;
3911;SDS011;1971;51.778;10.330;2023-02-27T02:01:58;0.60;;;0.60;;
3911;SDS011;1971;51.778;10.330;2023-02-27T02:04:34;0.95;;;0.85;;
3911;SDS011;1971;51.778;10.330;2023-02-27T02:07:07;1.90;;;1.10;;
3911;SDS011;1971;51.778;10.330;2023-02-27T02:09:43;3.13;;;0.80;;
3911;SDS011;1971;51.778;10.330;2023-02-27T02:12:17;0.50;;;0.50;;
3911;SDS011;1971;51.778;10.330;2023-02-27T02:14:50;1.17;;;0.97;;
3911;SDS011;1971;51.778;10.330;2023-02-27T02:17:21;0.63;;;0.63;;
3911;SDS011;1971;51.778;10.330;2023-02-27T02:20:05;1.55;;;1.00;;
3911;SDS011;1971;51.778;10.330;2023-02-27T02:23:11;0.77;;;0.77;;
3911;SDS011;1971;51.778;10.330;2023-02-27T02:26:02;0.88;;;0.80;;
3911;SDS011;1971;51.778;10.330;2023-02-27T02:31:59;1.08;;;0.98;;
3911;SDS011;1971;51.778;10.330;2023-02-27T02:35:04;1.43;;;1.13;;
3911;SDS011;1971;51.778;10.330;2023-02-27T02:38:22;1.15;;;0.80;;
3911;SDS011;1971;51.778;10.330;2023-02-27T02:41:04;1.30;;;1.23;;
3911;SDS011;1971;51.778;10.330;2023-02-27T02:43:44;0.77;;;0.75;;
3911;SDS011;1971;51.778;10.330;2023-02-27T02:46:23;1.15;;;0.90;;
3911;SDS011;1971;51.778;10.330;2023-02-27T02:49:00;0.68;;;0.68;;
3911;SDS011;1971;51.778;10.330;2023-02-27T02:51:39;0.73;;;0.70;;
3911;SDS011;1971;51.778;10.330;2023-02-27T02:54:19;1.03;;;0.90;;
3911;SDS011;1971;51.778;10.330;2023-02-27T02:56:56;0.70;;;0.70;;
3911;SDS011;1971;51.778;10.330;2023-02-27T02:59:32;2.70;;;1.00;;
3911;SDS011;1971;51.778;10.330;2023-02-27T03:02:08;0.77;;;0.77;;
3911;SDS011;1971;51.778;10.330;2023-02-27T03:04:40;1.38;;;0.75;;
3911;SDS011;1971;51.778;10.330;2023-02-27T03:07:16;0.98;;;0.80;;
3911;SDS011;1971;51.778;10.330;2023-02-27T03:09:55;1.30;;;1.05;;
3911;SDS011;1971;51.778;10.330;2023-02-27T03:12:32;0.50;;;0.50;;
3911;SDS011;1971;51.778;10.330;2023-02-27T03:15:05;0.60;;;0.60;;
3911;SDS011;1971;51.778;10.330;2023-02-27T03:17:41;0.80;;;0.80;;
3911;SDS011;1971;51.778;10.330;2023-02-27T03:20:16;1.13;;;0.80;;
3911;SDS011;1971;51.778;10.330;2023-02-27T03:22:53;0.80;;;0.80;;
3911;SDS011;1971;51.778;10.330;2023-02-27T03:25:28;2.63;;;0.73;;
3911;SDS011;1971;51.778;10.330;2023-02-27T03:28:00;0.73;;;0.73;;
3911;SDS011;1971;51.778;10.330;2023-02-27T03:30:35;2.20;;;1.17;;
3911;SDS011;1971;51.778;10.330;2023-02-27T03:33:08;1.10;;;1.05;;
3911;SDS011;1971;51.778;10.330;2023-02-27T03:35:46;1.23;;;1.10;;
3911;SDS011;1971;51.778;10.330;2023-02-27T03:38:21;1.48;;;1.38;;
3911;SDS011;1971;51.778;10.330;2023-02-27T03:41:04;1.50;;;0.98;;
3911;SDS011;1971;51.778;10.330;2023-02-27T03:43:47;0.70;;;0.70;;
3911;SDS011;1971;51.778;10.330;2023-02-27T03:46:30;0.80;;;0.80;;
3911;SDS011;1971;51.778;10.330;2023-02-27T03:49:00;0.90;;;0.90;;
3911;SDS011;1971;51.778;10.330;2023-02-27T03:51:31;0.80;;;0.80;;
3911;SDS011;1971;51.778;10.330;2023-02-27T03:54:02;1.35;;;1.10;;
3911;SDS011;1971;51.778;10.330;2023-02-27T03:56:41;3.42;;;1.60;;
3911;SDS011;1971;51.778;10.330;2023-02-27T03:59:16;0.82;;;0.82;;
3911;SDS011;1971;51.778;10.330;2023-02-27T04:01:49;1.35;;;1.15;;
3911;SDS011;1971;51.778;10.330;2023-02-27T04:04:20;1.35;;;0.80;;
3911;SDS011;1971;51.778;10.330;2023-02-27T04:07:10;0.60;;;0.60;;
3911;SDS011;1971;51.778;10.330;2023-02-27T04:10:08;1.27;;;0.77;;
3911;SDS011;1971;51.778;10.330;2023-02-27T04:15:57;1.70;;;0.82;;
3911;SDS011;1971;51.778;10.330;2023-02-27T04:18:45;0.80;;;0.80;;
3911;SDS011;1971;51.778;10.330;2023-02-27T04:21:25;1.40;;;0.90;;
3911;SDS011;1971;51.778;10.330;2023-02-27T04:24:00;1.30;;;1.20;;
3911;SDS011;1971;51.778;10.330;2023-02-27T04:26:40;2.13;;;1.50;;
3911;SDS011;1971;51.778;10.330;2023-02-27T04:29:19;2.87;;;2.57;;
3911;SDS011;1971;51.778;10.330;2023-02-27T04:31:54;3.17;;;2.87;;
3911;SDS011;1971;51.778;10.330;2023-02-27T04:34:28;1.53;;;1.43;;
3911;SDS011;1971;51.778;10.330;2023-02-27T04:37:04;2.27;;;1.70;;
3911;SDS011;1971;51.778;10.330;2023-02-27T04:39:41;1.40;;;1.30;;
3911;SDS011;1971;51.778;10.330;2023-02-27T04:42:17;3.27;;;1.23;;
3911;SDS011;1971;51.778;10.330;2023-02-27T04:44:54;2.90;;;2.70;;
3911;SDS011;1971;51.778;10.330;2023-02-27T04:47:27;2.67;;;2.33;;
3911;SDS011;1971;51.778;10.330;2023-02-27T04:50:03;4.30;;;3.70;;
3911;SDS011;1971;51.778;10.330;2023-02-27T04:52:38;4.47;;;3.27;;
3911;SDS011;1971;51.778;10.330;2023-02-27T04:55:12;4.37;;;3.23;;
3911;SDS011;1971;51.778;10.330;2023-02-27T04:57:48;3.90;;;3.50;;
3911;SDS011;1971;51.778;10.330;2023-02-27T05:00:24;2.83;;;2.63;;
3911;SDS011;1971;51.778;10.330;2023-02-27T05:02:59;2.60;;;2.40;;
3911;SDS011;1971;51.778;10.330;2023-02-27T05:05:33;3.73;;;2.93;;
3911;SDS011;1971;51.778;10.330;2023-02-27T05:08:07;2.63;;;2.43;;
3911;SDS011;1971;51.778;10.330;2023-02-27T05:10:44;4.60;;;2.77;;
3911;SDS011;1971;51.778;10.330;2023-02-27T05:13:19;2.30;;;2.10;;
3911;SDS011;1971;51.778;10.330;2023-02-27T05:15:58;3.30;;;2.17;;
3911;SDS011;1971;51.778;10.330;2023-02-27T05:18:34;2.43;;;1.73;;
3911;SDS011;1971;51.778;10.330;2023-02-27T05:21:07;1.93;;;1.83;;
3911;SDS011;1971;51.778;10.330;2023-02-27T05:23:44;2.10;;;2.00;;
3911;SDS011;1971;51.778;10.330;2023-02-27T05:26:24;5.90;;;1.77;;
3911;SDS011;1971;51.778;10.330;2023-02-27T05:29:04;2.60;;;2.10;;
3911;SDS011;1971;51.778;10.330;2023-02-27T05:31:43;1.60;;;1.50;;
3911;SDS011;1971;51.778;10.330;2023-02-27T05:34:20;1.80;;;1.67;;
3911;SDS011;1971;51.778;10.330;2023-02-27T05:36:55;1.70;;;1.60;;
3911;SDS011;1971;51.778;10.330;2023-02-27T05:39:28;1.63;;;1.40;;
3911;SDS011;1971;51.778;10.330;2023-02-27T05:42:00;2.87;;;2.10;;
3911;SDS011;1971;51.778;10.330;2023-02-27T05:44:37;1.60;;;1.50;;
3911;SDS011;1971;51.778;10.330;2023-02-27T05:47:15;3.13;;;1.67;;
3911;SDS011;1971;51.778;10.330;2023-02-27T05:49:50;3.43;;;2.20;;
3911;SDS011;1971;51.778;10.330;2023-02-27T05:52:24;2.20;;;2.00;;
3911;SDS011;1971;51.778;10.330;2023-02-27T05:54:56;2.07;;;1.87;;
3911;SDS011;1971;51.778;10.330;2023-02-27T05:57:31;1.90;;;1.43;;
3911;SDS011;1971;51.778;10.330;2023-02-27T06:00:05;1.40;;;1.30;;
3911;SDS011;1971;51.778;10.330;2023-02-27T06:02:44;2.07;;;1.87;;
3911;SDS011;1971;51.778;10.330;2023-02-27T06:05:15;1.57;;;1.27;;
3911;SDS011;1971;51.778;10.330;2023-02-27T06:07:46;3.80;;;1.47;;
3911;SDS011;1971;51.778;10.330;2023-02-27T06:10:17;1.27;;;1.17;;
3911;SDS011;1971;51.778;10.330;2023-02-27T06:12:48;1.97;;;1.80;;
3911;SDS011;1971;51.778;10.330;2023-02-27T06:15:18;2.47;;;1.60;;
3911;SDS011;1971;51.778;10.330;2023-02-27T06:17:51;2.00;;;1.57;;
3911;SDS011;1971;51.778;10.330;2023-02-27T06:20:22;1.17;;;1.07;;
3911;SDS011;1971;51.778;10.330;2023-02-27T06:22:52;2.90;;;1.93;;
3911;SDS011;1971;51.778;10.330;2023-02-27T06:25:22;1.88;;;1.77;;
3911;SDS011;1971;51.778;10.330;2023-02-27T06:27:52;1.15;;;1.13;;
3911;SDS011;1971;51.778;10.330;2023-02-27T06:30:22;9.68;;;1.75;;
3911;SDS011;1971;51.778;10.330;2023-02-27T06:32:55;1.92;;;1.80;;
3911;SDS011;1971;51.778;10.330;2023-02-27T06:35:26;1.65;;;1.55;;
3911;SDS011;1971;51.778;10.330;2023-02-27T06:37:57;2.08;;;1.90;;
3911;SDS011;1971;51.778;10.330;2023-02-27T06:40:27;2.55;;;2.35;;
3911;SDS011;1971;51.778;10.330;2023-02-27T06:42:58;3.40;;;2.65;;
3911;SDS011;1971;51.778;10.330;2023-02-27T06:45:28;1.63;;;1.52;;
3911;SDS011;1971;51.778;10.330;2023-02-27T06:48:01;1.67;;;1.57;;
3911;SDS011;1971;51.778;10.330;2023-02-27T06:50:31;4.27;;;2.87;;
3911;SDS011;1971;51.778;10.330;2023-02-27T06:53:01;2.50;;;2.30;;
3911;SDS011;1971;51.778;10.330;2023-02-27T06:55:32;3.43;;;2.40;;
3911;SDS011;1971;51.778;10.330;2023-02-27T06:58:02;3.80;;;2.30;;
3911;SDS011;1971;51.778;10.330;2023-02-27T07:00:32;3.33;;;3.03;;
3911;SDS011;1971;51.778;10.330;2023-02-27T07:03:05;5.70;;;4.70;;
3911;SDS011;1971;51.778;10.330;2023-02-27T07:05:35;2.80;;;2.60;;
3911;SDS011;1971;51.778;10.330;2023-02-27T07:08:05;5.73;;;4.43;;
3911;SDS011;1971;51.778;10.330;2023-02-27T07:10:35;5.90;;;4.27;;
3911;SDS011;1971;51.778;10.330;2023-02-27T07:13:08;6.60;;;5.87;;
3911;SDS011;1971;51.778;10.330;2023-02-27T07:15:42;12.83;;;8.80;;
3911;SDS011;1971;51.778;10.330;2023-02-27T07:18:15;7.63;;;5.10;;
3911;SDS011;1971;51.778;10.330;2023-02-27T07:20:48;4.53;;;4.03;;
3911;SDS011;1971;51.778;10.330;2023-02-27T07:23:20;2.00;;;1.90;;
3911;SDS011;1971;51.778;10.330;2023-02-27T07:25:50;2.70;;;2.50;;
3911;SDS011;1971;51.778;10.330;2023-02-27T07:28:20;5.43;;;3.77;;
3911;SDS011;1971;51.778;10.330;2023-02-27T07:30:52;4.00;;;2.30;;
3911;SDS011;1971;51.778;10.330;2023-02-27T07:33:25;2.60;;;2.07;;
3911;SDS011;1971;51.778;10.330;2023-02-27T07:35:55;3.33;;;2.90;;
3911;SDS011;1971;51.778;10.330;2023-02-27T07:38:25;3.30;;;3.00;;
3911;SDS011;1971;51.778;10.330;2023-02-27T07:41:00;3.87;;;2.87;;
3911;SDS011;1971;51.778;10.330;2023-02-27T07:43:30;4.00;;;2.50;;
3911;SDS011;1971;51.778;10.330;2023-02-27T07:46:00;2.80;;;2.60;;
3911;SDS011;1971;51.778;10.330;2023-02-27T07:48:33;2.73;;;2.53;;
3911;SDS011;1971;51.778;10.330;2023-02-27T07:51:05;3.03;;;2.23;;
3911;SDS011;1971;51.778;10.330;2023-02-27T07:53:35;2.47;;;2.03;;
3911;SDS011;1971;51.778;10.330;2023-02-27T07:56:05;3.23;;;2.60;;
3911;SDS011;1971;51.778;10.330;2023-02-27T07:58:36;4.10;;;3.80;;
3911;SDS011;1971;51.778;10.330;2023-02-27T08:01:06;6.70;;;3.30;;
3911;SDS011;1971;51.778;10.330;2023-02-27T08:03:39;3.20;;;2.30;;
3911;SDS011;1971;51.778;10.330;2023-02-27T08:06:09;1.70;;;1.60;;
3911;SDS011;1971;51.778;10.330;2023-02-27T08:08:39;2.00;;;1.70;;
3911;SDS011;1971;51.778;10.330;2023-02-27T08:11:11;2.50;;;1.87;;
3911;SDS011;1971;51.778;10.330;2023-02-27T08:13:41;1.40;;;1.30;;
3911;SDS011;1971;51.778;10.330;2023-02-27T08:16:28;2.17;;;1.77;;
3911;SDS011;1971;51.778;10.330;2023-02-27T08:19:01;2.60;;;1.10;;
3911;SDS011;1971;51.778;10.330;2023-02-27T08:21:31;1.70;;;1.07;;
3911;SDS011;1971;51.778;10.330;2023-02-27T08:24:02;1.73;;;1.40;;
3911;SDS011;1971;51.778;10.330;2023-02-27T08:26:32;2.27;;;1.60;;
3911;SDS011;1971;51.778;10.330;2023-02-27T08:29:02;3.90;;;1.70;;
3911;SDS011;1971;51.778;10.330;2023-02-27T08:31:33;1.67;;;1.30;;
3911;SDS011;1971;51.778;10.330;2023-02-27T08:34:06;1.37;;;1.20;;
3911;SDS011;1971;51.778;10.330;2023-02-27T08:36:36;2.10;;;1.50;;
3911;SDS011;1971;51.778;10.330;2023-02-27T08:39:07;2.43;;;2.20;;
3911;SDS011;1971;51.778;10.330;2023-02-27T08:41:38;2.33;;;1.50;;
3911;SDS011;1971;51.778;10.330;2023-02-27T08:44:09;3.03;;;1.90;;
3911;SDS011;1971;51.778;10.330;2023-02-27T08:46:39;5.10;;;1.83;;
3911;SDS011;1971;51.778;10.330;2023-02-27T08:49:12;2.70;;;1.60;;
3911;SDS011;1971;51.778;10.330;2023-02-27T08:51:45;3.70;;;3.40;;
3911;SDS011;1971;51.778;10.330;2023-02-27T08:54:16;5.33;;;2.50;;
3911;SDS011;1971;51.778;10.330;2023-02-27T08:56:47;3.20;;;2.07;;
3911;SDS011;1971;51.778;10.330;2023-02-27T08:59:17;2.73;;;2.20;;
3911;SDS011;1971;51.778;10.330;2023-02-27T09:01:47;4.30;;;1.50;;
3911;SDS011;1971;51.778;10.330;2023-02-27T09:04:20;1.57;;;1.30;;
3911;SDS011;1971;51.778;10.330;2023-02-27T09:06:51;4.40;;;1.00;;
3911;SDS011;1971;51.778;10.330;2023-02-27T09:09:23;1.17;;;0.90;;
3911;SDS011;1971;51.778;10.330;2023-02-27T09:11:53;0.80;;;0.70;;
3911;SDS011;1971;51.778;10.330;2023-02-27T09:14:23;1.80;;;0.93;;
3911;SDS011;1971;51.778;10.330;2023-02-27T09:16:53;1.30;;;1.10;;
3911;SDS011;1971;51.778;10.330;2023-02-27T09:19:27;1.30;;;0.73;;
3911;SDS011;1971;51.778;10.330;2023-02-27T09:21:57;0.70;;;0.60;;
3911;SDS011;1971;51.778;10.330;2023-02-27T09:24:27;1.10;;;1.00;;
3911;SDS011;1971;51.778;10.330;2023-02-27T09:26:57;0.70;;;0.70;;
3911;SDS011;1971;51.778;10.330;2023-02-27T09:29:27;2.83;;;1.00;;
3911;SDS011;1971;51.778;10.330;2023-02-27T09:31:57;1.20;;;1.03;;
3911;SDS011;1971;51.778;10.330;2023-02-27T09:34:30;2.40;;;1.17;;
3911;SDS011;1971;51.778;10.330;2023-02-27T09:37:00;1.50;;;1.17;;
3911;SDS011;1971;51.778;10.330;2023-02-27T09:39:31;1.10;;;1.00;;
3911;SDS011;1971;51.778;10.330;2023-02-27T09:42:02;1.93;;;1.20;;
3911;SDS011;1971;51.778;10.330;2023-02-27T09:44:39;2.10;;;1.90;;
3911;SDS011;1971;51.778;10.330;2023-02-27T09:47:15;2.10;;;1.20;;
3911;SDS011;1971;51.778;10.330;2023-02-27T09:49:59;1.10;;;0.90;;
3911;SDS011;1971;51.778;10.330;2023-02-27T09:52:31;1.37;;;1.27;;
3911;SDS011;1971;51.778;10.330;2023-02-27T09:55:04;3.13;;;1.30;;
3911;SDS011;1971;51.778;10.330;2023-02-27T09:57:42;1.77;;;1.47;;
3911;SDS011;1971;51.778;10.330;2023-02-27T10:00:24;2.40;;;1.47;;
3911;SDS011;1971;51.778;10.330;2023-02-27T10:03:07;1.83;;;1.00;;
3911;SDS011;1971;51.778;10.330;2023-02-27T10:06:01;0.87;;;0.87;;
3911;SDS011;1971;51.778;10.330;2023-02-27T10:08:49;2.37;;;0.80;;
3911;SDS011;1971;51.778;10.330;2023-02-27T10:11:29;1.33;;;1.13;;
3911;SDS011;1971;51.778;10.330;2023-02-27T10:14:06;0.80;;;0.80;;
3911;SDS011;1971;51.778;10.330;2023-02-27T10:16:45;1.27;;;1.10;;
3911;SDS011;1971;51.778;10.330;2023-02-27T10:19:20;1.23;;;0.87;;
3911;SDS011;1971;51.778;10.330;2023-02-27T10:21:58;2.50;;;1.13;;
3911;SDS011;1971;51.778;10.330;2023-02-27T10:24:30;1.87;;;1.77;;
3911;SDS011;1971;51.778;10.330;2023-02-27T10:27:05;1.37;;;1.00;;
3911;SDS011;1971;51.778;10.330;2023-02-27T10:29:40;1.20;;;1.00;;
3911;SDS011;1971;51.778;10.330;2023-02-27T10:32:11;1.43;;;0.73;;
3911;SDS011;1971;51.778;10.330;2023-02-27T10:34:46;2.43;;;1.60;;
3911;SDS011;1971;51.778;10.330;2023-02-27T10:37:23;1.30;;;1.00;;
3911;SDS011;1971;51.778;10.330;2023-02-27T10:39:56;2.97;;;1.00;;
3911;SDS011;1971;51.778;10.330;2023-02-27T10:42:30;1.83;;;1.10;;
3911;SDS011;1971;51.778;10.330;2023-02-27T10:45:11;2.40;;;0.90;;
3911;SDS011;1971;51.778;10.330;2023-02-27T10:47:43;3.13;;;0.90;;
3911;SDS011;1971;51.778;10.330;2023-02-27T10:50:20;1.93;;;1.00;;
3911;SDS011;1971;51.778;10.330;2023-02-27T10:52:55;1.77;;;1.47;;
3911;SDS011;1971;51.778;10.330;2023-02-27T10:55:27;1.20;;;0.90;;
3911;SDS011;1971;51.778;10.330;2023-02-27T10:57:58;1.00;;;0.90;;
3911;SDS011;1971;51.778;10.330;2023-02-27T11:00:33;1.87;;;0.97;;
3911;SDS011;1971;51.778;10.330;2023-02-27T11:03:16;1.37;;;1.10;;
3911;SDS011;1971;51.778;10.330;2023-02-27T11:05:52;1.00;;;0.80;;
3911;SDS011;1971;51.778;10.330;2023-02-27T11:08:28;1.97;;;1.50;;
3911;SDS011;1971;51.778;10.330;2023-02-27T11:11:00;1.87;;;1.10;;
3911;SDS011;1971;51.778;10.330;2023-02-27T11:13:32;2.77;;;1.00;;
3911;SDS011;1971;51.778;10.330;2023-02-27T11:16:06;1.50;;;1.10;;
3911;SDS011;1971;51.778;10.330;2023-02-27T11:18:39;1.00;;;0.83;;
3911;SDS011;1971;51.778;10.330;2023-02-27T11:21:19;1.50;;;1.00;;
3911;SDS011;1971;51.778;10.330;2023-02-27T11:24:03;1.37;;;1.03;;
3911;SDS011;1971;51.778;10.330;2023-02-27T11:26:36;3.13;;;1.90;;
3911;SDS011;1971;51.778;10.330;2023-02-27T11:29:14;2.43;;;1.57;;
3911;SDS011;1971;51.778;10.330;2023-02-27T11:31:47;0.73;;;0.73;;
3911;SDS011;1971;51.778;10.330;2023-02-27T11:34:25;1.17;;;1.07;;
3911;SDS011;1971;51.778;10.330;2023-02-27T11:36:58;0.77;;;0.70;;
3911;SDS011;1971;51.778;10.330;2023-02-27T11:39:35;1.27;;;0.90;;
3911;SDS011;1971;51.778;10.330;2023-02-27T11:42:14;3.53;;;1.00;;
3911;SDS011;1971;51.778;10.330;2023-02-27T11:44:49;2.20;;;0.70;;
3911;SDS011;1971;51.778;10.330;2023-02-27T11:47:24;4.50;;;0.60;;
3911;SDS011;1971;51.778;10.330;2023-02-27T11:50:14;1.27;;;0.93;;
3911;SDS011;1971;51.778;10.330;2023-02-27T11:56:06;1.37;;;0.70;;
3911;SDS011;1971;51.778;10.330;2023-02-27T11:58:42;1.00;;;0.93;;
3911;SDS011;1971;51.778;10.330;2023-02-27T12:01:20;0.80;;;0.73;;
3911;SDS011;1971;51.778;10.330;2023-02-27T12:03:57;0.93;;;0.80;;
3911;SDS011;1971;51.778;10.330;2023-02-27T12:06:34;2.90;;;0.60;;
3911;SDS011;1971;51.778;10.330;2023-02-27T12:09:10;1.30;;;0.70;;
3911;SDS011;1971;51.778;10.330;2023-02-27T12:11:52;0.63;;;0.60;;
3911;SDS011;1971;51.778;10.330;2023-02-27T12:14:26;1.30;;;1.20;;
3911;SDS011;1971;51.778;10.330;2023-02-27T12:17:00;0.80;;;0.80;;
3911;SDS011;1971;51.778;10.330;2023-02-27T12:19:37;0.90;;;0.80;;
3911;SDS011;1971;51.778;10.330;2023-02-27T12:22:16;0.70;;;0.60;;
3911;SDS011;1971;51.778;10.330;2023-02-27T12:24:51;0.80;;;0.80;;
3911;SDS011;1971;51.778;10.330;2023-02-27T12:27:31;1.67;;;0.70;;
3911;SDS011;1971;51.778;10.330;2023-02-27T12:30:12;0.97;;;0.80;;
3911;SDS011;1971;51.778;10.330;2023-02-27T12:32:47;1.03;;;0.80;;
3911;SDS011;1971;51.778;10.330;2023-02-27T12:35:23;2.10;;;0.70;;
3911;SDS011;1971;51.778;10.330;2023-02-27T12:37:57;1.43;;;0.73;;
3911;SDS011;1971;51.778;10.330;2023-02-27T12:40:34;1.47;;;1.13;;
3911;SDS011;1971;51.778;10.330;2023-02-27T12:43:12;3.60;;;1.43;;
3911;SDS011;1971;51.778;10.330;2023-02-27T12:46:08;1.67;;;0.77;;
3911;SDS011;1971;51.778;10.330;2023-02-27T12:49:08;1.67;;;0.93;;
3911;SDS011;1971;51.778;10.330;2023-02-27T12:51:56;1.63;;;0.90;;
3911;SDS011;1971;51.778;10.330;2023-02-27T12:54:35;1.10;;;0.60;;
3911;SDS011;1971;51.778;10.330;2023-02-27T13:00:08;0.97;;;0.90;;
3911;SDS011;1971;51.778;10.330;2023-02-27T13:02:48;3.40;;;1.40;;
3911;SDS011;1971;51.778;10.330;2023-02-27T13:05:27;2.03;;;0.90;;
3911;SDS011;1971;51.778;10.330;2023-02-27T13:08:08;2.00;;;0.73;;
3911;SDS011;1971;51.778;10.330;2023-02-27T13:10:47;4.80;;;0.97;;
3911;SDS011;1971;51.778;10.330;2023-02-27T13:13:21;1.30;;;1.20;;
3911;SDS011;1971;51.778;10.330;2023-02-27T13:15:59;1.00;;;0.90;;
3911;SDS011;1971;51.778;10.330;2023-02-27T13:18:36;1.00;;;0.90;;
3911;SDS011;1971;51.778;10.330;2023-02-27T13:21:12;1.67;;;1.10;;
3911;SDS011;1971;51.778;10.330;2023-02-27T13:23:52;1.83;;;0.97;;
3911;SDS011;1971;51.778;10.330;2023-02-27T13:26:32;1.77;;;0.90;;
3911;SDS011;1971;51.778;10.330;2023-02-27T13:29:05;1.53;;;1.30;;
3911;SDS011;1971;51.778;10.330;2023-02-27T13:31:45;1.77;;;1.10;;
3911;SDS011;1971;51.778;10.330;2023-02-27T13:34:22;1.00;;;0.80;;
3911;SDS011;1971;51.778;10.330;2023-02-27T13:37:00;2.97;;;1.20;;
3911;SDS011;1971;51.778;10.330;2023-02-27T13:39:50;3.40;;;1.00;;
3911;SDS011;1971;51.778;10.330;2023-02-27T13:48:39;1.80;;;1.27;;
3911;SDS011;1971;51.778;10.330;2023-02-27T13:54:30;7.23;;;1.00;;
3911;SDS011;1971;51.778;10.330;2023-02-27T13:59:57;1.40;;;1.30;;
3911;SDS011;1971;51.778;10.330;2023-02-27T14:02:44;1.53;;;1.40;;
3911;SDS011;1971;51.778;10.330;2023-02-27T14:05:35;0.80;;;0.80;;
3911;SDS011;1971;51.778;10.330;2023-02-27T14:08:09;1.13;;;0.90;;
3911;SDS011;1971;51.778;10.330;2023-02-27T14:10:49;1.37;;;1.27;;
3911;SDS011;1971;51.778;10.330;2023-02-27T14:19:27;1.90;;;1.70;;
3911;SDS011;1971;51.778;10.330;2023-02-27T14:22:36;1.67;;;1.57;;
3911;SDS011;1971;51.778;10.330;2023-02-27T14:28:00;1.47;;;1.30;;
3911;SDS011;1971;51.778;10.330;2023-02-27T14:30:32;2.50;;;1.40;;
3911;SDS011;1971;51.778;10.330;2023-02-27T14:33:11;2.80;;;1.70;;
3911;SDS011;1971;51.778;10.330;2023-02-27T14:36:05;2.33;;;1.47;;
3911;SDS011;1971;51.778;10.330;2023-02-27T14:38:41;1.37;;;1.23;;
3911;SDS011;1971;51.778;10.330;2023-02-27T14:41:19;2.60;;;1.53;;
3911;SDS011;1971;51.778;10.330;2023-02-27T14:43:55;1.70;;;1.20;;
3911;SDS011;1971;51.778;10.330;2023-02-27T14:46:27;1.50;;;1.40;;
3911;SDS011;1971;51.778;10.330;2023-02-27T14:49:00;2.03;;;1.67;;
3911;SDS011;1971;51.778;10.330;2023-02-27T14:51:32;2.60;;;1.40;;
3911;SDS011;1971;51.778;10.330;2023-02-27T14:54:11;1.43;;;1.33;;
3911;SDS011;1971;51.778;10.330;2023-02-27T14:56:51;3.40;;;1.40;;
3911;SDS011;1971;51.778;10.330;2023-02-27T14:59:23;2.00;;;1.80;;
3911;SDS011;1971;51.778;10.330;2023-02-27T15:01:55;2.80;;;1.50;;
3911;SDS011;1971;51.778;10.330;2023-02-27T15:04:27;2.03;;;1.83;;
3911;SDS011;1971;51.778;10.330;2023-02-27T15:07:00;3.23;;;2.10;;
3911;SDS011;1971;51.778;10.330;2023-02-27T15:09:34;2.13;;;1.90;;
3911;SDS011;1971;51.778;10.330;2023-02-27T15:12:09;2.47;;;2.03;;
3911;SDS011;1971;51.778;10.330;2023-02-27T15:14:46;2.73;;;1.87;;
3911;SDS011;1971;51.778;10.330;2023-02-27T15:17:20;2.20;;;2.00;;
3911;SDS011;1971;51.778;10.330;2023-02-27T15:19:52;1.83;;;1.73;;
3911;SDS011;1971;51.778;10.330;2023-02-27T15:22:25;2.20;;;1.70;;
3911;SDS011;1971;51.778;10.330;2023-02-27T15:28:00;1.67;;;1.57;;
3911;SDS011;1971;51.778;10.330;2023-02-27T15:30:32;1.77;;;1.57;;
3911;SDS011;1971;51.778;10.330;2023-02-27T15:33:02;2.50;;;1.30;;
3911;SDS011;1971;51.778;10.330;2023-02-27T15:35:34;3.60;;;2.00;;
3911;SDS011;1971;51.778;10.330;2023-02-27T15:38:05;1.83;;;1.73;;
3911;SDS011;1971;51.778;10.330;2023-02-27T15:40:38;3.33;;;1.73;;
3911;SDS011;1971;51.778;10.330;2023-02-27T15:43:09;2.20;;;1.97;;
3911;SDS011;1971;51.778;10.330;2023-02-27T15:45:39;3.33;;;1.73;;
3911;SDS011;1971;51.778;10.330;2023-02-27T15:48:11;1.50;;;1.40;;
3911;SDS011;1971;51.778;10.330;2023-02-27T15:50:43;3.10;;;1.90;;
3911;SDS011;1971;51.778;10.330;2023-02-27T15:53:17;3.03;;;2.10;;
3911;SDS011;1971;51.778;10.330;2023-02-27T15:55:51;1.80;;;1.70;;
3911;SDS011;1971;51.778;10.330;2023-02-27T15:58:24;5.07;;;1.97;;
3911;SDS011;1971;51.778;10.330;2023-02-27T16:00:56;2.97;;;2.20;;
3911;SDS011;1971;51.778;10.330;2023-02-27T16:03:31;4.80;;;2.53;;
3911;SDS011;1971;51.778;10.330;2023-02-27T16:06:08;2.10;;;1.90;;
3911;SDS011;1971;51.778;10.330;2023-02-27T16:08:41;2.60;;;1.77;;
3911;SDS011;1971;51.778;10.330;2023-02-27T16:11:22;3.20;;;2.10;;
3911;SDS011;1971;51.778;10.330;2023-02-27T16:13:53;3.37;;;2.00;;
3911;SDS011;1971;51.778;10.330;2023-02-27T16:16:25;2.53;;;2.10;;
3911;SDS011;1971;51.778;10.330;2023-02-27T16:19:01;1.90;;;1.80;;
3911;SDS011;1971;51.778;10.330;2023-02-27T16:24:32;3.03;;;1.83;;
3911;SDS011;1971;51.778;10.330;2023-02-27T16:27:05;4.00;;;2.70;;
3911;SDS011;1971;51.778;10.330;2023-02-27T16:29:45;2.10;;;1.90;;